createdAt,value
2023-03-10T00:01:10.359Z,2.92
2023-03-10T00:03:38.073Z,2.20
2023-03-10T00:06:06.381Z,2.60
2023-03-10T00:08:34.061Z,2.30
2023-03-10T00:11:02.041Z,2.75
2023-03-10T00:13:29.432Z,2.78
2023-03-10T00:15:57.291Z,2.83
2023-03-10T00:18:25.048Z,2.50
2023-03-10T00:20:53.992Z,2.42
2023-03-10T00:23:21.819Z,2.53
2023-03-10T00:25:57.000Z,2.40
2023-03-10T00:28:25.882Z,2.22
2023-03-10T00:31:05.115Z,2.78
2023-03-10T00:33:34.037Z,2.60
2023-03-10T00:36:29.417Z,2.20
2023-03-10T00:38:57.810Z,2.55
2023-03-10T00:41:28.072Z,3.00
2023-03-10T00:43:55.561Z,2.40
2023-03-10T00:46:24.200Z,2.45
2023-03-10T00:48:52.276Z,2.62
2023-03-10T00:51:20.474Z,2.08
2023-03-10T00:53:48.492Z,2.75
2023-03-10T00:56:18.128Z,2.40
2023-03-10T00:58:46.362Z,2.20
2023-03-10T01:01:17.680Z,2.60
2023-03-10T01:03:45.846Z,2.95
2023-03-10T01:06:13.617Z,2.33
2023-03-10T01:08:41.285Z,2.50
2023-03-10T01:11:09.391Z,2.60
2023-03-10T01:13:37.917Z,1.95
2023-03-10T01:16:06.906Z,2.47
2023-03-10T01:18:34.694Z,2.65
2023-03-10T01:21:03.953Z,2.33
2023-03-10T01:23:31.907Z,2.33
2023-03-10T01:25:59.613Z,2.25
2023-03-10T01:28:26.960Z,2.10
2023-03-10T01:30:54.366Z,3.08
2023-03-10T01:33:22.132Z,2.55
2023-03-10T01:35:49.578Z,2.58
2023-03-10T01:38:17.740Z,2.08
2023-03-10T01:40:50.499Z,2.15
2023-03-10T01:45:53.654Z,2.08
2023-03-10T01:48:22.453Z,2.72
2023-03-10T01:50:52.816Z,2.80
2023-03-10T01:53:21.268Z,1.95
2023-03-10T01:55:53.496Z,2.00
2023-03-10T02:00:52.637Z,2.17
2023-03-10T02:03:27.351Z,2.00
2023-03-10T02:05:57.623Z,1.83
2023-03-10T02:08:26.918Z,2.22
2023-03-10T02:10:54.706Z,1.90
2023-03-10T02:13:22.510Z,2.15
2023-03-10T02:15:49.909Z,1.85
2023-03-10T02:18:18.267Z,2.40
2023-03-10T02:21:00.476Z,2.47
2023-03-10T02:23:41.036Z,2.53
2023-03-10T02:26:18.744Z,3.03
2023-03-10T02:28:48.260Z,3.78
2023-03-10T02:31:16.895Z,3.00
2023-03-10T02:33:46.128Z,2.90
2023-03-10T02:36:16.820Z,2.70
2023-03-10T02:38:44.843Z,2.47
2023-03-10T02:41:16.094Z,2.58
2023-03-10T02:43:43.749Z,2.50
2023-03-10T02:46:12.531Z,2.10
2023-03-10T02:48:41.235Z,1.92
2023-03-10T02:51:11.832Z,2.65
2023-03-10T02:53:41.372Z,1.92
2023-03-10T02:56:09.551Z,2.20
2023-03-10T02:58:37.657Z,2.30
2023-03-10T03:01:06.505Z,2.08
2023-03-10T03:03:35.078Z,1.98
2023-03-10T03:06:02.828Z,2.17
2023-03-10T03:08:30.348Z,1.83
2023-03-10T03:10:58.246Z,2.62
2023-03-10T03:13:25.866Z,2.22
2023-03-10T03:15:53.718Z,2.15
2023-03-10T03:18:22.021Z,2.10
2023-03-10T03:20:49.726Z,2.62
2023-03-10T03:23:17.210Z,3.15
2023-03-10T03:25:45.182Z,2.42
2023-03-10T03:28:13.410Z,3.03
2023-03-10T03:30:41.436Z,2.72
2023-03-10T03:33:09.286Z,2.08
2023-03-10T03:35:37.753Z,2.50
2023-03-10T03:38:06.535Z,2.50
2023-03-10T03:40:35.746Z,1.83
2023-03-10T03:43:04.853Z,2.30
2023-03-10T03:45:33.219Z,2.30
2023-03-10T03:48:01.353Z,2.28
2023-03-10T03:50:30.297Z,2.12
2023-03-10T03:52:58.174Z,2.15
2023-03-10T03:55:28.868Z,2.20
2023-03-10T03:57:56.321Z,3.53
2023-03-10T04:00:24.876Z,2.65
2023-03-10T04:02:53.871Z,2.03
2023-03-10T04:05:21.346Z,1.90
2023-03-10T04:07:49.873Z,2.45
2023-03-10T04:10:20.641Z,2.28
2023-03-10T04:12:48.432Z,2.40
2023-03-10T04:15:15.977Z,3.15
2023-03-10T04:17:43.664Z,3.10
2023-03-10T04:20:14.247Z,2.90
2023-03-10T04:22:42.194Z,3.87
2023-03-10T04:25:10.767Z,4.40
2023-03-10T04:27:38.207Z,4.68
2023-03-10T04:30:07.133Z,4.45
2023-03-10T04:32:35.436Z,3.97
2023-03-10T04:35:04.904Z,4.03
2023-03-10T04:37:33.280Z,4.25
2023-03-10T04:40:03.292Z,4.82
2023-03-10T04:42:30.987Z,3.85
2023-03-10T04:44:58.443Z,4.78
2023-03-10T04:47:26.162Z,5.35
2023-03-10T04:49:53.830Z,5.62
2023-03-10T04:52:21.211Z,5.15
2023-03-10T04:54:49.055Z,5.28
2023-03-10T04:57:16.760Z,4.80
2023-03-10T04:59:44.521Z,4.03
2023-03-10T05:02:12.487Z,4.45
2023-03-10T05:04:40.688Z,4.15
2023-03-10T05:07:09.544Z,4.80
2023-03-10T05:09:38.080Z,4.65
2023-03-10T05:12:06.981Z,4.80
2023-03-10T05:14:34.967Z,3.92
2023-03-10T05:17:02.729Z,4.35
2023-03-10T05:19:30.736Z,4.22
2023-03-10T05:21:58.341Z,4.20
2023-03-10T05:24:26.093Z,4.30
2023-03-10T05:26:53.470Z,4.75
2023-03-10T05:29:21.057Z,4.47
2023-03-10T05:31:49.111Z,4.55
2023-03-10T05:34:16.921Z,5.10
2023-03-10T05:36:44.758Z,11.12
2023-03-10T05:39:12.521Z,12.95
2023-03-10T05:41:40.332Z,12.75
2023-03-10T05:44:07.986Z,12.82
2023-03-10T05:46:35.973Z,13.00
2023-03-10T05:49:03.363Z,13.80
2023-03-10T05:51:31.041Z,13.57
2023-03-10T05:54:01.169Z,13.00
2023-03-10T05:56:29.008Z,13.13
2023-03-10T05:58:56.577Z,13.55
2023-03-10T06:01:24.696Z,12.60
2023-03-10T06:03:52.395Z,12.05
2023-03-10T06:06:19.758Z,12.43
2023-03-10T06:08:47.178Z,11.57
2023-03-10T06:11:15.082Z,10.90
2023-03-10T06:13:42.469Z,10.35
2023-03-10T06:16:11.578Z,10.73
2023-03-10T06:18:39.348Z,11.12
2023-03-10T06:21:08.462Z,10.45
2023-03-10T06:23:35.956Z,10.05
2023-03-10T06:26:13.093Z,9.13
2023-03-10T06:28:42.757Z,8.55
2023-03-10T06:31:18.834Z,8.45
2023-03-10T06:33:46.510Z,7.32
2023-03-10T06:36:15.473Z,7.10
2023-03-10T06:38:42.881Z,7.80
2023-03-10T06:41:11.790Z,8.27
2023-03-10T06:43:39.845Z,8.52
2023-03-10T06:46:08.547Z,8.50
2023-03-10T06:48:37.284Z,8.70
2023-03-10T06:51:14.742Z,8.93
2023-03-10T06:53:42.420Z,7.57
2023-03-10T06:56:17.881Z,7.93
2023-03-10T06:58:45.784Z,7.62
2023-03-10T07:01:29.038Z,8.70
2023-03-10T07:03:57.385Z,8.60
2023-03-10T07:06:25.541Z,8.10
2023-03-10T07:08:54.336Z,6.85
2023-03-10T07:11:22.805Z,6.90
2023-03-10T07:13:50.976Z,7.82
2023-03-10T07:16:18.465Z,7.97
2023-03-10T07:18:45.919Z,7.43
2023-03-10T07:21:17.561Z,8.15
2023-03-10T07:23:45.156Z,12.05
2023-03-10T07:26:16.336Z,9.05
2023-03-10T07:28:44.409Z,7.97
2023-03-10T07:31:13.731Z,7.65
2023-03-10T07:33:41.416Z,7.40
2023-03-10T07:36:12.119Z,7.00
2023-03-10T07:38:39.744Z,7.87
2023-03-10T07:41:13.726Z,7.35
2023-03-10T07:43:41.422Z,7.00
2023-03-10T07:46:12.242Z,7.18
2023-03-10T07:48:39.949Z,7.07
2023-03-10T07:51:07.928Z,7.22
2023-03-10T07:53:35.933Z,7.55
2023-03-10T07:56:08.049Z,7.20
2023-03-10T07:58:36.152Z,7.20
2023-03-10T08:01:04.220Z,5.78
2023-03-10T08:03:34.060Z,7.00
2023-03-10T08:06:02.503Z,6.62
2023-03-10T08:08:29.924Z,5.95
2023-03-10T08:11:05.409Z,4.87
2023-03-10T08:13:33.745Z,5.75
2023-03-10T08:16:02.229Z,4.93
2023-03-10T08:18:30.625Z,4.50
2023-03-10T08:20:58.258Z,4.80
2023-03-10T08:23:25.995Z,4.80
2023-03-10T08:25:53.368Z,4.85
2023-03-10T08:28:20.889Z,4.75
2023-03-10T08:31:02.970Z,4.65
2023-03-10T08:33:31.396Z,5.20
2023-03-10T08:36:04.366Z,5.25
2023-03-10T08:38:31.893Z,4.85
2023-03-10T08:41:09.199Z,5.00
2023-03-10T08:43:36.735Z,5.30
2023-03-10T08:46:06.173Z,5.62
2023-03-10T08:48:35.755Z,5.00
2023-03-10T08:51:03.959Z,5.20
2023-03-10T08:53:33.750Z,5.10
2023-03-10T08:56:01.112Z,4.65
2023-03-10T08:58:28.491Z,5.15
2023-03-10T09:00:56.438Z,4.90
2023-03-10T09:03:24.558Z,4.85
2023-03-10T09:05:52.345Z,4.95
2023-03-10T09:08:20.070Z,5.18
2023-03-10T09:10:47.640Z,4.72
2023-03-10T09:13:15.208Z,5.20
2023-03-10T09:15:42.862Z,5.07
2023-03-10T09:18:11.952Z,7.00
2023-03-10T09:20:41.429Z,5.35
2023-03-10T09:23:10.404Z,5.68
2023-03-10T09:25:40.347Z,6.40
2023-03-10T09:28:08.571Z,7.28
2023-03-10T09:30:38.609Z,7.30
2023-03-10T09:33:08.735Z,7.37
2023-03-10T09:35:41.591Z,6.93
2023-03-10T09:38:12.979Z,7.32
2023-03-10T09:40:46.139Z,7.70
2023-03-10T09:43:20.410Z,7.12
2023-03-10T09:45:58.201Z,7.78
2023-03-10T09:48:26.481Z,7.72
2023-03-10T09:50:56.488Z,8.13
2023-03-10T09:53:51.541Z,9.02
2023-03-10T09:56:21.471Z,8.60
2023-03-10T09:58:50.436Z,7.97
2023-03-10T10:01:21.443Z,7.40
2023-03-10T10:03:54.400Z,6.85
2023-03-10T10:06:28.131Z,6.20
2023-03-10T10:09:14.316Z,6.30
2023-03-10T10:11:41.729Z,5.90
2023-03-10T10:14:27.684Z,5.87
2023-03-10T10:17:19.120Z,6.50
2023-03-10T10:19:48.065Z,6.12
2023-03-10T10:22:24.873Z,7.20
2023-03-10T10:25:15.346Z,6.87
2023-03-10T10:27:43.220Z,5.85
2023-03-10T10:30:28.998Z,5.87
2023-03-10T10:33:04.794Z,5.85
2023-03-10T10:35:41.029Z,5.10
2023-03-10T10:38:11.364Z,4.47
2023-03-10T10:40:50.792Z,4.12
2023-03-10T10:43:20.357Z,4.07
2023-03-10T10:45:57.558Z,4.18
2023-03-10T10:48:40.477Z,3.15
2023-03-10T10:51:20.780Z,2.22
2023-03-10T10:53:48.312Z,2.30
2023-03-10T10:56:18.185Z,2.55
2023-03-10T10:59:01.217Z,3.00
2023-03-10T11:01:55.807Z,2.60
2023-03-10T11:04:24.956Z,2.20
2023-03-10T11:06:53.160Z,2.20
2023-03-10T11:09:23.268Z,3.35
2023-03-10T11:12:12.441Z,2.25
2023-03-10T11:14:52.593Z,2.70
2023-03-10T11:17:28.750Z,2.60
2023-03-10T11:20:25.755Z,2.50
2023-03-10T11:22:55.664Z,2.58
2023-03-10T11:25:39.002Z,2.42
2023-03-10T11:28:28.089Z,2.37
2023-03-10T11:31:27.633Z,2.55
2023-03-10T11:34:17.085Z,2.22
2023-03-10T11:37:01.610Z,2.17
2023-03-10T11:39:35.671Z,1.98
2023-03-10T11:42:11.090Z,2.17
2023-03-10T11:44:43.159Z,2.05
2023-03-10T11:47:25.676Z,3.33
2023-03-10T11:50:07.646Z,3.40
2023-03-10T11:52:35.381Z,3.08
2023-03-10T11:55:15.124Z,3.90
2023-03-10T11:57:46.133Z,4.57
2023-03-10T12:00:26.149Z,4.50
2023-03-10T12:03:12.279Z,4.10
2023-03-10T12:05:45.357Z,4.03
2023-03-10T12:08:14.023Z,3.72
2023-03-10T12:10:42.268Z,3.50
2023-03-10T12:13:23.623Z,3.20
2023-03-10T12:15:54.788Z,3.20
2023-03-10T12:18:23.931Z,3.55
2023-03-10T12:21:15.343Z,3.12
2023-03-10T12:23:45.312Z,2.95
2023-03-10T12:26:13.286Z,3.22
2023-03-10T12:28:41.034Z,3.00
2023-03-10T12:31:11.445Z,3.10
2023-03-10T12:33:46.430Z,2.50
2023-03-10T12:36:19.943Z,3.03
2023-03-10T12:38:57.401Z,2.78
2023-03-10T12:41:27.896Z,2.28
2023-03-10T12:43:55.553Z,2.37
2023-03-10T12:47:00.682Z,2.35
2023-03-10T12:49:28.278Z,1.90
2023-03-10T12:52:02.489Z,2.90
2023-03-10T12:55:04.880Z,2.55
2023-03-10T12:57:38.058Z,2.55
2023-03-10T13:00:24.213Z,2.45
2023-03-10T13:03:13.365Z,2.15
2023-03-10T13:06:02.932Z,2.80
2023-03-10T13:08:39.326Z,2.60
2023-03-10T13:11:31.527Z,2.17
2023-03-10T13:14:05.097Z,2.42
2023-03-10T13:16:33.593Z,2.80
2023-03-10T13:19:01.391Z,2.85
2023-03-10T13:21:39.519Z,3.08
2023-03-10T13:24:29.564Z,2.37
2023-03-10T13:27:18.848Z,2.85
2023-03-10T13:29:59.450Z,2.55
2023-03-10T13:32:27.074Z,2.45
2023-03-10T13:34:56.264Z,2.33
2023-03-10T13:37:24.361Z,1.85
2023-03-10T13:39:52.188Z,2.17
2023-03-10T13:42:40.709Z,2.20
2023-03-10T13:45:21.953Z,2.25
2023-03-10T13:47:51.054Z,1.90
2023-03-10T13:50:18.650Z,1.87
2023-03-10T13:52:54.585Z,2.12
2023-03-10T13:55:22.260Z,2.00
2023-03-10T13:57:50.236Z,2.25
2023-03-10T14:00:20.545Z,2.70
2023-03-10T14:02:49.500Z,3.00
2023-03-10T14:05:39.172Z,2.37
2023-03-10T14:08:15.950Z,2.83
2023-03-10T14:10:43.361Z,2.58
2023-03-10T14:13:42.946Z,2.55
2023-03-10T14:16:11.110Z,2.72
2023-03-10T14:18:41.459Z,27.08
2023-03-10T14:21:27.089Z,43.70
2023-03-10T14:23:56.952Z,8.65
2023-03-10T14:26:25.033Z,4.32
2023-03-10T14:28:52.447Z,4.20
2023-03-10T14:31:22.750Z,3.22
2023-03-10T14:33:50.791Z,2.80
2023-03-10T14:36:18.426Z,3.80
2023-03-10T14:38:46.220Z,3.30
2023-03-10T14:41:14.168Z,3.03
2023-03-10T14:43:42.326Z,2.55
2023-03-10T14:46:11.459Z,2.28
2023-03-10T14:48:41.835Z,3.50
2023-03-10T14:51:29.068Z,3.08
2023-03-10T14:54:02.022Z,3.12
2023-03-10T14:56:30.095Z,3.87
2023-03-10T14:59:02.067Z,4.25
2023-03-10T15:01:30.697Z,3.80
2023-03-10T15:03:58.146Z,3.70
2023-03-10T15:06:25.539Z,3.37
2023-03-10T15:08:53.209Z,3.60
2023-03-10T15:11:35.618Z,3.65
2023-03-10T15:14:12.542Z,3.25
2023-03-10T15:16:39.913Z,2.95
2023-03-10T15:19:14.209Z,2.53
2023-03-10T15:21:41.584Z,2.90
2023-03-10T15:24:09.394Z,3.62
2023-03-10T15:26:36.771Z,3.53
2023-03-10T15:29:04.120Z,3.55
2023-03-10T15:31:31.801Z,4.05
2023-03-10T15:33:59.166Z,3.95
2023-03-10T15:36:26.613Z,3.65
2023-03-10T15:38:54.365Z,3.10
2023-03-10T15:41:21.789Z,3.08
2023-03-10T15:43:50.378Z,3.80
2023-03-10T15:46:18.349Z,2.97
2023-03-10T15:48:45.789Z,3.50
2023-03-10T15:51:17.410Z,3.75
2023-03-10T15:53:45.333Z,4.28
2023-03-10T15:56:13.098Z,3.72
2023-03-10T15:58:40.576Z,3.55
2023-03-10T16:01:15.337Z,3.75
2023-03-10T16:03:43.659Z,3.65
2023-03-10T16:06:12.439Z,4.20
2023-03-10T16:08:40.164Z,3.50
2023-03-10T16:11:15.118Z,3.85
2023-03-10T16:13:45.177Z,3.40
2023-03-10T16:16:13.123Z,4.72
2023-03-10T16:18:40.469Z,3.92
2023-03-10T16:21:08.045Z,3.75
2023-03-10T16:23:35.706Z,3.25
2023-03-10T16:26:13.594Z,3.20
2023-03-10T16:28:43.592Z,2.75
2023-03-10T16:31:12.869Z,2.95
2023-03-10T16:33:41.548Z,2.55
2023-03-10T16:36:13.222Z,2.47
2023-03-10T16:38:41.006Z,2.42
2023-03-10T16:41:09.508Z,2.30
2023-03-10T16:43:37.337Z,2.45
2023-03-10T16:46:09.270Z,2.60
2023-03-10T16:48:41.949Z,3.78
2023-03-10T16:51:31.005Z,4.43
2023-03-10T16:54:03.557Z,6.80
2023-03-10T16:56:32.691Z,6.28
2023-03-10T16:59:00.132Z,5.95
2023-03-10T17:01:27.825Z,4.68
2023-03-10T17:03:56.049Z,4.05
2023-03-10T17:06:31.088Z,4.50
2023-03-10T17:09:00.258Z,5.18
2023-03-10T17:11:55.345Z,5.62
2023-03-10T17:14:23.716Z,10.30
2023-03-10T17:16:51.225Z,6.43
2023-03-10T17:19:21.146Z,6.40
2023-03-10T17:21:50.606Z,3.92
2023-03-10T17:24:19.959Z,3.20
2023-03-10T17:26:47.683Z,3.05
2023-03-10T17:29:15.645Z,3.47
2023-03-10T17:31:43.971Z,3.15
2023-03-10T17:34:12.990Z,3.10
2023-03-10T17:36:40.663Z,3.83
2023-03-10T17:39:08.288Z,3.45
2023-03-10T17:41:36.579Z,3.30
2023-03-10T17:44:06.771Z,4.47
2023-03-10T17:46:34.270Z,10.52
2023-03-10T17:49:01.796Z,11.48
2023-03-10T17:51:30.854Z,11.38
2023-03-10T17:54:00.955Z,11.88
2023-03-10T17:56:29.004Z,12.27
2023-03-10T17:58:57.083Z,10.95
2023-03-10T18:01:27.558Z,7.30
2023-03-10T18:03:56.296Z,16.73
2023-03-10T18:06:26.292Z,15.20
2023-03-10T18:08:56.231Z,12.85
2023-03-10T18:11:25.594Z,10.73
2023-03-10T18:13:53.248Z,4.68
2023-03-10T18:16:26.113Z,4.30
2023-03-10T18:18:54.704Z,3.00
2023-03-10T18:21:22.458Z,2.90
2023-03-10T18:23:51.191Z,2.28
2023-03-10T18:26:32.351Z,2.80
2023-03-10T18:28:59.940Z,2.08
2023-03-10T18:31:33.096Z,2.55
2023-03-10T18:34:00.874Z,2.20
2023-03-10T18:36:29.375Z,2.70
2023-03-10T18:38:57.055Z,4.30
2023-03-10T18:41:26.783Z,5.00
2023-03-10T18:43:54.486Z,5.20
2023-03-10T18:46:22.345Z,5.18
2023-03-10T18:48:55.432Z,4.82
2023-03-10T18:51:27.774Z,4.82
2023-03-10T18:53:55.464Z,4.45
2023-03-10T18:56:25.660Z,3.72
2023-03-10T18:58:53.347Z,4.60
2023-03-10T19:01:20.868Z,4.07
2023-03-10T19:03:48.651Z,3.35
2023-03-10T19:06:16.333Z,3.33
2023-03-10T20:03:54.427Z,22.20
2023-03-10T20:06:23.548Z,20.92
2023-03-10T20:08:51.883Z,18.85
2023-03-10T20:11:19.849Z,25.40
2023-03-10T20:13:47.629Z,22.40
2023-03-10T20:16:16.077Z,15.50
2023-03-10T20:18:43.442Z,13.85
2023-03-10T20:21:11.377Z,11.43
2023-03-10T20:23:39.099Z,9.60
2023-03-10T20:26:09.233Z,10.60
2023-03-10T20:28:39.499Z,14.82
2023-03-10T20:31:07.509Z,16.27
2023-03-10T20:33:36.102Z,16.65
2023-03-10T20:36:04.291Z,11.02
2023-03-10T20:38:31.617Z,13.88
2023-03-10T20:41:02.225Z,11.48
2023-03-10T20:43:30.245Z,8.63
2023-03-10T20:45:57.628Z,9.27
2023-03-10T20:48:24.977Z,10.25
2023-03-10T20:50:56.141Z,8.77
2023-03-10T20:53:23.622Z,8.18
2023-03-10T20:55:51.174Z,8.10
2023-03-10T20:58:18.922Z,7.62
2023-03-10T21:00:47.676Z,7.72
2023-03-10T21:03:15.064Z,7.03
2023-03-10T21:05:42.708Z,5.82
2023-03-10T21:08:10.405Z,5.82
2023-03-10T21:10:38.035Z,5.12
2023-03-10T21:13:06.055Z,4.57
2023-03-10T21:15:33.448Z,4.45
2023-03-10T21:18:00.818Z,4.50
2023-03-10T21:20:28.511Z,4.50
2023-03-10T21:22:55.951Z,4.37
2023-03-10T21:25:24.983Z,4.40
2023-03-10T21:27:58.583Z,4.10
2023-03-10T21:30:31.690Z,4.35
2023-03-10T21:33:00.070Z,4.18
2023-03-10T21:35:30.365Z,4.40
2023-03-10T21:37:59.276Z,4.15
2023-03-10T21:40:27.058Z,4.40
2023-03-10T21:42:54.475Z,3.87
2023-03-10T21:45:23.896Z,4.28
2023-03-10T21:47:51.606Z,4.25
2023-03-10T21:50:19.184Z,4.20
2023-03-10T21:52:47.998Z,3.90
2023-03-10T21:55:19.835Z,4.28
2023-03-10T21:57:47.426Z,5.33
2023-03-10T22:00:16.356Z,6.12
2023-03-10T22:02:43.977Z,7.12
2023-03-10T22:05:15.479Z,5.97
2023-03-10T22:07:43.051Z,6.80
2023-03-10T22:10:12.238Z,5.10
2023-03-10T22:12:39.693Z,4.95
2023-03-10T22:15:09.041Z,4.22
2023-03-10T22:17:36.731Z,3.47
2023-03-10T22:20:07.000Z,3.50
2023-03-10T22:22:34.696Z,3.22
2023-03-10T22:25:02.402Z,3.70
2023-03-10T22:27:29.748Z,3.50
2023-03-10T22:29:57.092Z,3.28
2023-03-10T22:32:24.785Z,3.50
2023-03-10T22:34:52.246Z,4.62
2023-03-10T22:37:19.606Z,4.15
2023-03-10T22:39:47.426Z,3.12
2023-03-10T22:42:14.765Z,2.83
2023-03-10T22:44:42.440Z,3.55
2023-03-10T22:47:10.202Z,2.90
2023-03-10T22:49:37.588Z,2.70
2023-03-10T22:52:06.984Z,3.62
2023-03-10T22:54:34.663Z,2.90
2023-03-10T22:57:02.047Z,3.00
2023-03-10T22:59:29.431Z,2.80
2023-03-10T23:01:57.145Z,2.97
2023-03-10T23:04:24.594Z,2.28
2023-03-10T23:06:51.977Z,2.30
2023-03-10T23:09:19.785Z,2.80
2023-03-10T23:11:48.958Z,2.42
2023-03-10T23:14:16.465Z,1.67
2023-03-10T23:16:44.109Z,1.20
2023-03-10T23:19:11.480Z,1.17
2023-03-10T23:21:39.232Z,0.80
2023-03-10T23:24:07.007Z,0.68
2023-03-10T23:26:36.646Z,0.60
2023-03-10T23:29:04.415Z,0.45
2023-03-10T23:31:32.080Z,0.28
2023-03-10T23:33:59.455Z,0.28
2023-03-10T23:36:26.841Z,0.30
2023-03-10T23:38:54.492Z,0.10
2023-03-10T23:41:21.899Z,0.35
2023-03-10T23:43:51.548Z,0.30
2023-03-10T23:46:21.808Z,0.20
2023-03-10T23:48:49.598Z,0.28
2023-03-10T23:51:17.667Z,0.20
2023-03-10T23:53:45.515Z,0.20
2023-03-10T23:56:12.893Z,0.20
2023-03-10T23:58:40.267Z,0.20
